Historique des données météo des stations

Retrouvez les conditions météo en temps réel en cliquant ici...

Station météo de Lignerolles (03)


Altitude de la station : 300 m







Relevés météorologiques pour le 31/10/2020 à Lignerolles

Date
Heure
Températures Humidité Point de rosée Vitesse
du vent
Direction Rafales Windchill Pression Pluviométrie
Cumul
Date
Heure
Températures Humidité Point de rosée Vitesse
du vent
Direction Rafales Windchill Pression Pluviométrie
Cumul
31/10/2020 22:3014.1 °C77 %10.0 °C2 km/hO26 km/h13.9 1022 hPa0.2 mm
31/10/2020 22:1413.8 °C78 %10.0 °C2 km/hSO26 km/h13.9 1022 hPa0.2 mm
31/10/2020 22:0013.6 °C78 %10.0 °C3 km/hOSO26 km/h13.9 1022 hPa0.2 mm
31/10/2020 21:4513.3 °C79 %10.0 °C-SO26 km/h13.3 1022 hPa0.2 mm
31/10/2020 21:3013.7 °C77 %9.4 °C-SSE26 km/h13.9 1022 hPa0.2 mm
31/10/2020 21:1514.0 °C75 %9.4 °C-SSE26 km/h13.9 1022 hPa0.2 mm
31/10/2020 21:0014.0 °C75 %9.4 °C2 km/hESE26 km/h13.9 1022 hPa0.2 mm
31/10/2020 20:4514.2 °C75 %10.0 °C-S26 km/h14.4 1022 hPa0.2 mm
31/10/2020 20:3013.8 °C76 %9.4 °C-ESE26 km/h13.9 1022 hPa0.2 mm
31/10/2020 20:1513.9 °C76 %10.0 °C-ESE26 km/h13.9 1022 hPa0.2 mm
31/10/2020 20:0013.6 °C77 %9.4 °C-S26 km/h13.3 1022 hPa0.2 mm
31/10/2020 19:4513.4 °C78 %9.4 °C-SE26 km/h13.3 1022 hPa0.2 mm
31/10/2020 19:3014.1 °C77 %10.0 °C-ESE26 km/h13.9 1022 hPa0.2 mm
31/10/2020 19:1414.7 °C73 %10.0 °C-OSO26 km/h15.0 1022 hPa0.2 mm
31/10/2020 18:5914.6 °C74 %10.0 °C-SSO26 km/h14.4 1022 hPa0.2 mm
31/10/2020 18:4414.8 °C73 %10.0 °C-SE26 km/h15.0 1022 hPa0.2 mm
31/10/2020 18:2915.1 °C72 %10.0 °C-SE26 km/h15.0 1021 hPa0.2 mm
31/10/2020 18:1315.5 °C71 %10.0 °C-SO26 km/h15.6 1021 hPa0.2 mm
31/10/2020 17:5915.7 °C70 %10.0 °C-SO26 km/h15.6 1021 hPa0.2 mm
31/10/2020 17:4516.3 °C68 %10.6 °C-ESE26 km/h16.1 1021 hPa0.2 mm
31/10/2020 17:2916.8 °C66 %10.6 °C3 km/hSSO26 km/h16.7 1021 hPa0.2 mm
31/10/2020 17:1417.3 °C64 %10.6 °C2 km/hSO26 km/h17.2 1021 hPa0.2 mm
31/10/2020 16:5917.8 °C63 %10.6 °C6 km/hSO26 km/h17.8 1021 hPa0.2 mm
31/10/2020 16:4418.0 °C63 %10.6 °C6 km/hS26 km/h17.8 1021 hPa0.2 mm
31/10/2020 16:2918.3 °C62 %10.6 °C5 km/hSO26 km/h18.3 1021 hPa0.2 mm
31/10/2020 16:1419.0 °C58 %10.6 °C11 km/hOSO26 km/h18.3 1021 hPa0.2 mm
31/10/2020 15:5820.7 °C52 %10.6 °C8 km/hSSO26 km/h20.6 1020 hPa0.2 mm
31/10/2020 15:4421.1 °C52 %10.6 °C6 km/hSO26 km/h21.1 1020 hPa0.2 mm
31/10/2020 15:3021.1 °C53 %11.1 °C8 km/hO26 km/h21.1 1020 hPa0.2 mm
31/10/2020 15:1321.1 °C48 %9.4 °C13 km/hSO26 km/h20.6 1021 hPa0.2 mm
31/10/2020 14:5821.2 °C49 %10.0 °C10 km/hO18 km/h21.1 1021 hPa0.2 mm
31/10/2020 14:4321.3 °C45 %8.9 °C11 km/hSO18 km/h20.6 1021 hPa0.2 mm
31/10/2020 14:2921.6 °C45 %8.9 °C8 km/hSO18 km/h21.7 1021 hPa0.2 mm
31/10/2020 14:1421.7 °C45 %9.4 °C5 km/hSO18 km/h21.7 1020 hPa0.2 mm
31/10/2020 14:0021.6 °C45 %8.9 °C5 km/hSO14 km/h21.7 1020 hPa0.2 mm
31/10/2020 13:4421.6 °C54 %11.7 °C6 km/hSO11 km/h21.7 1021 hPa0.2 mm
31/10/2020 13:2821.7 °C55 %12.2 °C3 km/hSO11 km/h21.7 1021 hPa0.2 mm
31/10/2020 13:1521.5 °C55 %12.2 °C3 km/hSO11 km/h21.7 1021 hPa0.2 mm
31/10/2020 12:5821.0 °C57 %12.2 °C-OSO11 km/h21.1 1021 hPa0.2 mm
31/10/2020 12:4420.4 °C57 %11.7 °C3 km/hOSO11 km/h20.6 1021 hPa0.2 mm
31/10/2020 12:2919.8 °C60 %11.7 °C-SSE11 km/h20.0 1021 hPa0.2 mm
31/10/2020 12:1419.2 °C62 %11.7 °C-ESE11 km/h19.4 1021 hPa0.2 mm
31/10/2020 12:0018.4 °C67 %12.2 °C2 km/hSO11 km/h18.3 1022 hPa0.2 mm
31/10/2020 11:4418.0 °C68 %12.2 °C5 km/hOSO11 km/h17.8 1022 hPa0.2 mm
31/10/2020 11:2917.3 °C71 %12.2 °C-OSO11 km/h17.2 1022 hPa0.2 mm
31/10/2020 11:1416.2 °C73 %11.1 °C-SO11 km/h16.1 1022 hPa0.2 mm
31/10/2020 10:5915.2 °C76 %11.1 °C3 km/hOSO11 km/h15.0 1022 hPa0.2 mm
31/10/2020 10:4413.9 °C80 %10.6 °C2 km/hSO11 km/h13.9 1022 hPa0.2 mm
31/10/2020 10:2913.4 °C82 %10.6 °C-SO11 km/h13.3 1022 hPa0.2 mm
31/10/2020 10:1312.7 °C86 %10.6 °C-SSO11 km/h12.8 1022 hPa0.2 mm
31/10/2020 09:5811.2 °C90 %9.4 °C-SO11 km/h11.1 1022 hPa0.2 mm
31/10/2020 09:449.6 °C95 %8.9 °C-SO11 km/h9.4 1022 hPa0.2 mm
31/10/2020 09:307.6 °C97 %7.2 °C-SO11 km/h7.8 1022 hPa0.2 mm
31/10/2020 09:136.2 °C98 %6.1 °C-OSO11 km/h6.1 1022 hPa0.2 mm
31/10/2020 08:594.8 °C98 %4.4 °C-OSO11 km/h5.0 1022 hPa0.2 mm
31/10/2020 08:454.1 °C98 %3.9 °C-OSO11 km/h3.9 1023 hPa0.2 mm
31/10/2020 08:293.4 °C97 %3.3 °C-NE11 km/h3.3 1023 hPa0.2 mm
31/10/2020 08:143.2 °C97 %2.8 °C-SO11 km/h3.3 1022 hPa0.2 mm
31/10/2020 07:583.1 °C97 %2.8 °C-OSO11 km/h3.3 1023 hPa0.2 mm
31/10/2020 07:443.5 °C97 %3.3 °C-O11 km/h3.3 1023 hPa0.2 mm
31/10/2020 07:293.9 °C98 %3.9 °C-SO11 km/h3.9 1023 hPa0.2 mm
31/10/2020 07:143.2 °C97 %2.8 °C-SO11 km/h3.3 1022 hPa0.2 mm
31/10/2020 06:593.5 °C97 %3.3 °C2 km/hSE11 km/h2.8 1023 hPa0.2 mm
31/10/2020 06:433.7 °C97 %3.3 °C2 km/hO11 km/h3.3 1023 hPa0.2 mm
31/10/2020 06:293.6 °C97 %3.3 °C2 km/hOSO11 km/h3.3 1023 hPa0.2 mm
31/10/2020 06:143.6 °C97 %3.3 °C2 km/hO11 km/h3.3 1023 hPa0.2 mm
31/10/2020 05:593.8 °C97 %3.3 °C-S11 km/h3.9 1023 hPa0.2 mm
31/10/2020 05:444.0 °C96 %3.3 °C-S11 km/h3.9 1023 hPa0.2 mm
31/10/2020 05:294.7 °C97 %4.4 °C-O11 km/h5.0 1023 hPa0.2 mm
31/10/2020 05:144.7 °C98 %4.4 °C5 km/hSO11 km/h3.3 1023 hPa0.2 mm
31/10/2020 04:594.5 °C97 %3.9 °C3 km/hSSO11 km/h3.3 1023 hPa0.2 mm
31/10/2020 04:444.6 °C97 %4.4 °C-SO11 km/h4.4 1023 hPa0.2 mm
31/10/2020 04:295.1 °C97 %4.4 °C-SO11 km/h5.0 1023 hPa0.2 mm
31/10/2020 04:134.9 °C98 %4.4 °C3 km/hSSO11 km/h4.4 1022 hPa-
31/10/2020 03:594.8 °C98 %4.4 °C-NO11 km/h5.0 1022 hPa-
31/10/2020 03:444.6 °C98 %4.4 °C-O11 km/h4.4 1023 hPa-
31/10/2020 03:294.4 °C97 %3.9 °C-SO11 km/h4.4 1023 hPa-
31/10/2020 03:144.6 °C98 %4.4 °C-SO11 km/h4.4 1023 hPa-
31/10/2020 02:594.5 °C97 %3.9 °C-SSO11 km/h4.4 1023 hPa-
31/10/2020 02:454.6 °C98 %4.4 °C-SO11 km/h4.4 1023 hPa-
31/10/2020 02:294.7 °C97 %4.4 °C-O11 km/h4.4 1023 hPa-
31/10/2020 02:144.7 °C97 %4.4 °C-S11 km/h5.0 1023 hPa-
31/10/2020 01:584.7 °C97 %4.4 °C-OSO11 km/h5.0 1023 hPa-
31/10/2020 01:444.8 °C97 %4.4 °C2 km/hSO11 km/h5.0 1024 hPa-
31/10/2020 01:295.6 °C98 %5.6 °C3 km/hSO11 km/h5.0 1024 hPa-
31/10/2020 01:145.4 °C98 %5.0 °C6 km/hSO8 km/h4.4 1024 hPa-
31/10/2020 00:594.9 °C97 %4.4 °C2 km/hSO2 km/h5.0 1024 hPa-
31/10/2020 00:454.9 °C97 %4.4 °C-O2 km/h5.0 1024 hPa-
31/10/2020 00:295.2 °C97 %5.0 °C-SO2 km/h5.0 1024 hPa-
31/10/2020 00:145.1 °C97 %4.4 °C-OSO2 km/h5.0 1024 hPa-


Le temps aujourd'hui à Lignerolles - 03

Minima :

Température : 3.1 °C
Humidité : 45 %
Point de rosée : 2.8 °C
Vent moyen : 2 km/h
Windchill : 2.8
Pression atm. : 1020 hPa
Maxima :

Température : 21.7 °C
Humidité : 98 %
Point de rosée : 12.2 °C
Vent moyen : 13 km/h
Windchill : 21.7
Pression atm. : 1024 hPa
Rafales max : 26 km/h
Cumul de pluie sur 24H : 0.2 mm

Lignerolles est une commune du département Allier (03).
La station météorologique du réseau de l'association Météo Centre la plus proche de Lignerolles est celle de Prémilhat



Icône Facebook Association Météo Centre Icône Twitter Association Météo Centre Icône Chaîne Youtube Association Météo Centre Icône contact Association Météo Centre Icône Insta Association Météo Centre